Time;durP1;ratioP1;P1;durP2;ratioP2;P2;SDS_P1;SDS_P2;PMS_P1;PMS_P2;Temp;Humidity;BMP_temperature;BMP_pressure;BME280_temperature;BME280_humidity;BME280_pressure;Samples;Min_cycle;Max_cycle;Signal;HPM_P1;HPM_P2
2021/08/25 02:38:54;;;;;;;5.30;3.60;;;12.80;96.60;;;;;;5203682;23;20448;-92
2021/08/25 02:41:54;;;;;;;;;;;;;;;;;;;;;
2021/08/25 03:08:23;;;;;;;4.40;4.20;;;12.60;96.70;;;;;;5037105;23;20468;-92
2021/08/25 03:16:15;;;;;;;;;;;;;;;;;;;;;
2021/08/25 03:21:27;;;;;;;5.33;4.93;;;12.60;96.40;;;;;;5279849;23;20496;-91
2021/08/25 03:26:51;;;;;;;5.17;4.87;;;12.40;96.50;;;;;;5097365;23;20500;-91
2021/08/25 03:46:45;;;;;;;5.27;4.90;;;12.30;96.50;;;;;;5047618;23;20474;-92
2021/08/25 03:49:42;;;;;;;4.67;4.43;;;14.10;99.90;;;;;;5416671;23;20556;-91
2021/08/25 03:52:11;;;;;;;4.30;3.97;;;14.50;99.90;;;;;;4999732;28;20428;-90
2021/08/25 04:05:15;;;;;;;3.90;3.80;;;12.10;99.10;;;;;;5609877;23;20985;-90
2021/08/25 04:07:47;;;;;;;5.00;4.60;;;13.10;97.30;;;;;;4962544;28;20409;-92
2021/08/25 04:10:20;;;;;;;8.23;4.57;;;13.70;99.90;;;;;;5063389;23;20505;-90
2021/08/25 04:12:55;;;;;;;4.67;4.40;;;12.20;97.60;;;;;;5538416;23;21374;-91
2021/08/25 04:15:49;;;;;;;5.57;5.27;;;12.50;99.40;;;;;;5015016;28;20511;-91
2021/08/25 04:18:16;;;;;;;5.13;4.90;;;13.90;97.90;;;;;;5018290;23;20475;-93
2021/08/25 04:20:53;;;;;;;5.37;5.00;;;13.30;99.90;;;;;;5174142;23;20484;-92
2021/08/25 04:33:52;;;;;;;5.10;4.90;;;13.30;99.20;;;;;;5494202;23;20484;-90
2021/08/25 04:41:39;;;;;;;5.47;5.13;;;11.90;98.10;;;;;;5546272;23;20808;-89
2021/08/25 04:44:17;;;;;;;4.60;4.30;;;12.70;98.20;;;;;;4998970;28;20409;-89
2021/08/25 04:47:06;;;;;;;5.37;5.10;;;13.00;97.70;;;;;;4981845;28;20413;-90
2021/08/25 04:50:03;;;;;;;5.23;4.90;;;13.20;97.80;;;;;;4998868;28;20401;-91
2021/08/25 04:58:04;;;;;;;;;;;;;;;;;;;;;
2021/08/25 05:00:39;;;;;;;5.83;5.27;;;13.30;99.70;;;;;;5018288;28;20480;-92
2021/08/25 05:03:40;;;;;;;5.03;4.63;;;11.30;96.50;;;;;;5001519;28;20448;-89
2021/08/25 05:06:12;;;;;;;5.47;4.97;;;11.70;99.00;;;;;;5208318;23;20460;-92
2021/08/25 05:09:05;;;;;;;5.53;5.23;;;13.40;99.60;;;;;;4979082;28;20434;-89
2021/08/25 05:14:29;;;;;;;5.53;5.20;;;12.10;96.50;;;;;;5248354;23;20508;-92
2021/08/25 05:20:03;;;;;;;5.33;5.13;;;12.10;96.20;;;;;;5237186;23;20475;-90
2021/08/25 05:28:00;;;;;;;5.53;5.00;;;12.30;99.40;;;;;;5451072;23;21251;-90
2021/08/25 05:33:01;;;;;;;5.20;4.90;;;12.30;96.10;;;;;;5009256;23;20503;-91
2021/08/25 05:35:30;;;;;;;5.80;5.47;;;12.40;95.60;;;;;;5005671;28;20475;-85
2021/08/25 05:37:58;;;;;;;5.90;5.60;;;13.40;97.80;;;;;;5003789;28;20179;-89
2021/08/25 05:40:24;;;;;;;5.80;5.33;;;13.30;97.00;;;;;;5001600;28;20405;-88
2021/08/25 05:42:50;;;;;;;6.03;5.63;;;12.50;95.10;;;;;;5005691;28;20448;-88
2021/08/25 05:48:05;;;;;;;5.50;5.10;;;12.70;95.20;;;;;;4983997;28;20228;-88
2021/08/25 05:50:31;;;;;;;5.10;4.80;;;12.90;94.80;;;;;;4982552;28;20439;-91
2021/08/25 05:55:31;;;;;;;4.70;4.60;;;13.20;94.20;;;;;;4979907;28;20248;-87
2021/08/25 05:57:56;;;;;;;5.63;5.10;;;13.80;94.10;;;;;;5092968;23;20488;-90
2021/08/25 06:00:52;;;;;;;5.53;5.13;;;15.20;95.10;;;;;;4966240;28;20181;-90
2021/08/25 06:05:54;;;;;;;5.17;4.80;;;14.40;89.20;;;;;;5056711;23;20499;-87
2021/08/25 06:08:20;;;;;;;4.67;4.30;;;15.90;90.70;;;;;;5000235;23;20491;-88
2021/08/25 06:10:49;;;;;;;4.30;4.00;;;14.90;90.80;;;;;;4985771;28;20461;-92
2021/08/25 06:13:28;;;;;;;4.37;4.17;;;15.10;85.80;;;;;;4979590;28;20480;-89
2021/08/25 06:15:54;;;;;;;6.00;4.50;;;15.70;79.80;;;;;;4982809;28;20933;-86
2021/08/25 06:23:57;;;;;;;;;;;;;;;;;;;;;
2021/08/25 06:26:24;;;;;;;4.87;4.60;;;18.20;65.60;;;;;;4978670;28;20452;-90
2021/08/25 06:28:57;;;;;;;4.50;4.20;;;18.40;66.00;;;;;;4992052;28;20729;-91
2021/08/25 06:31:45;;;;;;;37.03;29.33;;;18.50;63.50;;;;;;4955574;28;20429;-93
2021/08/25 06:37:16;;;;;;;5.47;4.47;;;20.90;58.60;;;;;;5086595;23;20881;-91
2021/08/25 06:39:49;;;;;;;4.47;4.27;;;20.50;59.50;;;;;;4986733;28;20405;-89
2021/08/25 06:42:33;;;;;;;4.47;4.27;;;22.40;57.70;;;;;;4974483;28;20409;-91
2021/08/25 06:45:07;;;;;;;4.53;4.23;;;21.60;57.70;;;;;;5008445;28;20470;-92
2021/08/25 06:47:46;;;;;;;6.23;4.83;;;25.70;57.40;;;;;;5148346;23;20576;-89
2021/08/25 06:50:26;;;;;;;;;;;;;;;;;;;;;
2021/08/25 06:53:14;;;;;;;5.00;4.70;;;21.80;52.00;;;;;;4970183;28;20524;-91
2021/08/25 06:56:03;;;;;;;4.20;3.90;;;23.20;51.80;;;;;;4993308;28;20424;-92
2021/08/25 06:59:03;;;;;;;;;;;;;;;;;;;;;
2021/08/25 07:04:18;;;;;;;5.50;4.90;;;24.60;48.80;;;;;;5222716;23;20480;-92
2021/08/25 07:06:57;;;;;;;3.67;3.47;;;24.80;48.40;;;;;;4991006;28;20437;-91
2021/08/25 07:09:24;;;;;;;9.53;4.97;;;;;;;;;;4997112;28;20416;-91
2021/08/25 07:11:51;;;;;;;4.83;4.30;;;25.70;47.70;;;;;;4993736;28;20421;-91
2021/08/25 07:17:30;;;;;;;4.67;4.47;;;26.70;45.80;;;;;;1199501;26;20498;-92
2021/08/25 07:19:58;;;;;;;4.60;4.30;;;26.60;47.00;;;;;;4971785;28;20398;-89
2021/08/25 07:22:23;;;;;;;3.90;3.83;;;29.60;48.00;;;;;;4950432;29;20237;-91
2021/08/25 07:24:51;;;;;;;4.50;4.17;;;28.90;45.70;;;;;;4965621;29;20422;-88
2021/08/25 07:27:32;;;;;;;5.27;4.20;;;29.60;45.90;;;;;;4948141;29;20182;-90
2021/08/25 07:30:20;;;;;;;6.30;6.00;;;30.50;43.60;;;;;;4949770;29;20444;-90
2021/08/25 07:33:12;;;;;;;3.70;3.60;;;29.00;42.60;;;;;;5000513;23;20474;-88
2021/08/25 07:35:46;;;;;;;4.30;4.20;;;27.90;41.20;;;;;;4982220;28;20472;-91
2021/08/25 07:38:35;;;;;;;4.00;3.90;;;28.80;41.30;;;;;;4987687;28;20761;-90
2021/08/25 07:41:18;;;;;;;4.63;4.33;;;29.60;41.70;;;;;;4987031;28;20427;-90
2021/08/25 07:43:55;;;;;;;4.53;4.17;;;29.80;39.30;;;;;;4657455;28;10000575;-92
2021/08/25 07:46:31;;;;;;;3.70;3.60;;;30.50;41.80;;;;;;4986057;23;20237;-89
2021/08/25 07:49:01;;;;;;;3.87;3.70;;;;;;;;;;4965973;28;20441;-88
2021/08/25 07:51:29;;;;;;;4.90;4.60;;;30.40;37.70;;;;;;4969755;28;20426;-89
2021/08/25 07:53:58;;;;;;;4.90;4.60;;;30.70;39.20;;;;;;4952072;29;20474;-90
2021/08/25 07:56:23;;;;;;;6.07;5.60;;;30.60;35.80;;;;;;4944845;29;20442;-89
2021/08/25 07:58:50;;;;;;;4.27;4.17;;;30.10;37.30;;;;;;4962359;28;20470;-93
2021/08/25 08:04:34;;;;;;;;;;;;;;;;;;;;;
2021/08/25 08:07:02;;;;;;;5.13;4.90;;;30.60;38.00;;;;;;4963917;29;20509;-85
2021/08/25 08:09:28;;;;;;;5.27;5.07;;;31.20;36.30;;;;;;4945292;29;21001;-87
2021/08/25 08:11:57;;;;;;;4.60;4.17;;;30.40;35.90;;;;;;4963795;28;20426;-91
2021/08/25 08:14:30;;;;;;;4.90;4.60;;;31.20;34.90;;;;;;4963672;28;20227;-89
2021/08/25 08:17:00;;;;;;;4.50;4.27;;;32.30;36.10;;;;;;4946383;29;20423;-92
2021/08/25 08:19:30;;;;;;;4.33;4.20;;;32.70;35.80;;;;;;4944962;29;20457;-90
2021/08/25 08:22:10;;;;;;;4.70;4.60;;;31.70;34.70;;;;;;4945373;29;20413;-91
2021/08/25 08:24:36;;;;;;;4.70;4.40;;;32.60;35.80;;;;;;4960577;28;20418;-87
2021/08/25 08:27:09;;;;;;;7.10;4.80;;;33.30;35.40;;;;;;4961227;28;21242;-89
2021/08/25 08:29:50;;;;;;;4.90;4.63;;;33.00;35.10;;;;;;4964981;28;20302;-87
2021/08/25 08:32:15;;;;;;;4.83;4.63;;;33.40;34.90;;;;;;5132889;23;20586;-89
2021/08/25 08:34:41;;;;;;;4.77;4.47;;;34.20;34.10;;;;;;5003876;28;20449;-89
2021/08/25 08:37:23;;;;;;;4.67;4.40;;;34.80;33.80;;;;;;4972796;28;20174;-91
2021/08/25 08:39:49;;;;;;;4.00;3.80;;;33.10;32.80;;;;;;5005612;28;20212;-91
2021/08/25 08:42:34;;;;;;;5.53;4.70;;;33.70;33.60;;;;;;4991267;28;20433;-92
2021/08/25 08:45:07;;;;;;;4.97;4.30;;;33.50;34.30;;;;;;5005850;28;20248;-90
2021/08/25 08:47:33;;;;;;;5.20;4.80;;;32.70;33.20;;;;;;4987879;28;20478;-90
2021/08/25 08:50:02;;;;;;;7.53;4.53;;;33.30;33.50;;;;;;5004821;28;20454;-91
2021/08/25 08:52:28;;;;;;;6.20;3.73;;;32.90;32.00;;;;;;4986522;28;20201;-87
2021/08/25 08:54:57;;;;;;;4.37;4.17;;;33.30;32.50;;;;;;4986178;28;20429;-91
2021/08/25 08:57:24;;;;;;;4.27;4.10;;;33.70;32.60;;;;;;5010489;28;20432;-90
2021/08/25 08:59:52;;;;;;;5.10;4.80;;;32.30;32.30;;;;;;4986321;28;20503;-87
2021/08/25 09:02:43;;;;;;;4.27;4.07;;;32.90;32.30;;;;;;4970379;28;20432;-91
2021/08/25 09:05:22;;;;;;;5.57;5.07;;;32.70;31.20;;;;;;4984512;28;20428;-90
2021/08/25 09:08:07;;;;;;;;;;;;;;;;;;;;;
2021/08/25 09:10:48;;;;;;;4.83;4.60;;;33.40;32.00;;;;;;5007040;28;20448;-90
2021/08/25 09:13:14;;;;;;;8.20;4.97;;;32.60;30.90;;;;;;4987091;28;20647;-90
2021/08/25 09:15:42;;;;;;;4.00;3.80;;;33.10;32.30;;;;;;4988958;28;20535;-88
2021/08/25 09:18:09;;;;;;;4.77;4.37;;;33.50;31.80;;;;;;5006468;28;20189;-82
2021/08/25 09:20:45;;;;;;;5.07;4.67;;;32.70;31.20;;;;;;5004044;28;20439;-90
2021/08/25 09:23:19;;;;;;;4.33;4.10;;;32.90;30.90;;;;;;4988620;28;20421;-86
2021/08/25 09:26:00;;;;;;;4.27;3.97;;;32.70;30.30;;;;;;4985542;28;20459;-85
2021/08/25 09:28:35;;;;;;;6.00;5.50;;;33.60;31.40;;;;;;4989357;28;20409;-89
2021/08/25 09:31:10;;;;;;;4.80;4.60;;;;;;;;;;4989831;28;20554;-87
2021/08/25 09:33:43;;;;;;;5.23;4.70;;;34.50;30.00;;;;;;5004267;28;20492;-88
2021/08/25 09:36:12;;;;;;;5.10;4.80;;;34.40;29.60;;;;;;4991759;28;20426;-89
2021/08/25 09:38:50;;;;;;;4.37;4.07;;;34.80;29.90;;;;;;4999059;28;20417;-90
2021/08/25 09:41:21;;;;;;;6.30;5.70;;;34.70;31.60;;;;;;5007611;28;21040;-90
2021/08/25 09:44:13;;;;;;;4.63;4.43;;;33.60;29.10;;;;;;4977331;28;20492;-91
2021/08/25 09:46:59;;;;;;;4.80;4.60;;;33.80;29.70;;;;;;4975812;28;20453;-88
2021/08/25 09:49:27;;;;;;;4.67;4.47;;;34.10;32.40;;;;;;4975073;28;20428;-87
2021/08/25 09:51:54;;;;;;;4.70;4.50;;;33.40;29.30;;;;;;4990499;28;20504;-90
2021/08/25 09:54:24;;;;;;;4.30;4.10;;;34.10;29.20;;;;;;5007479;28;20467;-88
2021/08/25 09:57:33;;;;;;;4.50;4.30;;;34.70;29.10;;;;;;5008680;28;20423;-87
2021/08/25 09:59:58;;;;;;;5.20;4.90;;;35.40;28.70;;;;;;5003365;28;20443;-87
2021/08/25 10:02:24;;;;;;;4.50;4.40;;;35.50;29.50;;;;;;5008811;28;20416;-83
2021/08/25 10:05:01;;;;;;;4.63;4.40;;;35.10;28.90;;;;;;4986321;28;20709;-88
2021/08/25 10:07:29;;;;;;;4.53;3.90;;;36.10;28.50;;;;;;4985396;23;20234;-89
2021/08/25 10:09:55;;;;;;;6.00;5.53;;;36.40;28.80;;;;;;4948085;29;20459;-89
2021/08/25 10:12:39;;;;;;;4.80;4.60;;;35.40;28.30;;;;;;4952858;29;20445;-88
2021/08/25 10:15:30;;;;;;;6.30;6.00;;;36.70;28.00;;;;;;4931687;29;20190;-86
2021/08/25 10:18:37;;;;;;;5.00;4.70;;;37.20;27.80;;;;;;4958197;29;20432;-86
2021/08/25 10:21:23;;;;;;;3.83;3.70;;;37.30;26.90;;;;;;4967685;29;20425;-88
2021/08/25 10:24:05;;;;;;;6.27;4.07;;;37.60;27.40;;;;;;4950766;29;20437;-88
2021/08/25 10:26:59;;;;;;;5.07;4.77;;;36.30;27.80;;;;;;4968698;29;20418;-89
2021/08/25 10:29:29;;;;;;;4.57;4.27;;;35.30;27.80;;;;;;4963486;29;20428;-89
2021/08/25 10:32:05;;;;;;;4.73;4.43;;;36.10;28.10;;;;;;4964466;29;20435;-87
2021/08/25 10:34:37;;;;;;;5.63;5.23;;;35.80;27.90;;;;;;4949182;29;20474;-91
2021/08/25 10:37:28;;;;;;;4.70;4.40;;;35.60;28.00;;;;;;4964016;29;20875;-90
2021/08/25 10:40:20;;;;;;;5.70;5.30;;;34.90;27.80;;;;;;4970236;29;20502;-86
2021/08/25 10:43:05;;;;;;;6.30;5.87;;;35.20;28.10;;;;;;4944973;29;20880;-88
2021/08/25 10:49:06;;;;;;;4.60;4.40;;;34.20;28.50;;;;;;4934443;28;20477;-88
2021/08/25 10:51:37;;;;;;;4.87;4.67;;;35.40;28.30;;;;;;4966817;29;20422;-82
2021/08/25 10:54:05;;;;;;;6.70;6.20;;;36.30;27.90;;;;;;4969484;29;20473;-86
2021/08/25 10:56:39;;;;;;;6.07;5.47;;;36.20;27.80;;;;;;4952715;29;20529;-89
2021/08/25 10:59:13;;;;;;;5.73;5.23;;;35.80;27.30;;;;;;4948226;29;20442;-90
2021/08/25 11:02:02;;;;;;;5.13;4.90;;;35.90;27.60;;;;;;4947930;29;20538;-93
2021/08/25 11:04:58;;;;;;;4.70;4.40;;;36.50;27.20;;;;;;4967996;29;20413;-92
2021/08/25 11:07:27;;;;;;;5.63;5.23;;;36.70;27.10;;;;;;4932216;29;20544;-90
2021/08/25 11:09:57;;;;;;;7.20;6.60;;;37.40;27.00;;;;;;4948793;29;20430;-87
2021/08/25 11:12:23;;;;;;;11.10;9.07;;;37.00;26.80;;;;;;4947139;29;20438;-87
2021/08/25 11:14:54;;;;;;;6.97;6.37;;;37.10;27.40;;;;;;4929254;28;20955;-91
2021/08/25 11:17:59;;;;;;;6.07;5.70;;;36.70;27.00;;;;;;4967499;28;20425;-88
2021/08/25 11:20:54;;;;;;;6.40;4.80;;;36.60;27.20;;;;;;4973344;28;20414;-91
2021/08/25 11:23:23;;;;;;;4.60;4.50;;;37.20;27.00;;;;;;4940397;28;20425;-88
2021/08/25 11:25:53;;;;;;;5.67;5.13;;;37.60;26.90;;;;;;4985863;28;20413;-85
2021/08/25 11:28:21;;;;;;;4.50;4.30;;;36.80;27.00;;;;;;4971237;28;20936;-89
2021/08/25 11:30:56;;;;;;;5.37;5.17;;;36.30;27.50;;;;;;4970373;28;20452;-84
2021/08/25 11:33:32;;;;;;;5.30;4.90;;;36.70;28.10;;;;;;4970751;28;20507;-92
2021/08/25 11:36:06;;;;;;;5.83;5.53;;;37.30;27.60;;;;;;4969184;28;20441;-91
2021/08/25 11:38:41;;;;;;;15.13;13.57;;;37.40;28.00;;;;;;4987631;28;20417;-89
2021/08/25 11:41:07;;;;;;;7.83;6.50;;;37.80;28.00;;;;;;4973420;28;20417;-88
2021/08/25 11:43:34;;;;;;;6.00;5.80;;;37.40;28.10;;;;;;4985189;28;20401;-86
2021/08/25 11:46:00;;;;;;;5.90;5.40;;;37.40;28.30;;;;;;4984794;28;20200;-85
2021/08/25 11:48:31;;;;;;;5.33;4.93;;;38.20;28.30;;;;;;4983301;28;20424;-89
2021/08/25 11:50:59;;;;;;;5.53;5.33;;;37.50;27.30;;;;;;4950952;28;20937;-91
2021/08/25 11:53:38;;;;;;;;;;;;;;;;;;;;;
2021/08/25 11:56:18;;;;;;;5.93;5.53;;;37.40;27.60;;;;;;4986385;28;20469;-92
2021/08/25 11:58:54;;;;;;;;;;;;;;;;;;;;;
2021/08/25 12:01:27;;;;;;;6.83;5.70;;;36.30;28.40;;;;;;4986619;28;20528;-90
2021/08/25 12:03:54;;;;;;;5.60;5.17;;;36.20;28.00;;;;;;4967425;28;20497;-90
2021/08/25 12:06:47;;;;;;;5.40;5.00;;;36.30;28.70;;;;;;4974042;28;20471;-87
2021/08/25 12:09:37;;;;;;;5.57;5.30;;;36.40;27.90;;;;;;4984650;28;20427;-90
2021/08/25 12:12:06;;;;;;;5.33;4.97;;;36.60;27.90;;;;;;5003106;28;20457;-87
2021/08/25 12:14:52;;;;;;;5.60;5.30;;;37.50;27.60;;;;;;5001662;28;20986;-88
2021/08/25 12:17:18;;;;;;;6.10;5.30;;;37.30;26.80;;;;;;5000524;28;20538;-89
2021/08/25 12:20:10;;;;;;;4.60;4.30;;;37.20;27.10;;;;;;5001472;28;20408;-91
2021/08/25 12:22:36;;;;;;;4.83;4.53;;;37.40;27.20;;;;;;5001953;28;20447;-87
2021/08/25 12:25:10;;;;;;;6.43;6.10;;;36.10;27.20;;;;;;4983841;28;20494;-88
2021/08/25 12:27:51;;;;;;;5.70;5.30;;;37.30;27.40;;;;;;4984414;28;20164;-91
2021/08/25 12:30:23;;;;;;;6.80;6.30;;;37.70;26.30;;;;;;4983725;28;20786;-90
2021/08/25 12:33:05;;;;;;;5.57;5.27;;;37.80;26.70;;;;;;4741490;23;10001880;-90
2021/08/25 12:35:33;;;;;;;4.20;4.10;;;38.00;26.50;;;;;;4985285;28;20181;-93
2021/08/25 12:38:00;;;;;;;5.87;4.83;;;38.00;27.40;;;;;;4984948;28;20408;-87
2021/08/25 12:40:29;;;;;;;4.10;3.90;;;35.90;27.50;;;;;;4986715;28;20436;-92
2021/08/25 12:43:05;;;;;;;5.30;5.00;;;36.00;27.90;;;;;;4983969;28;20412;-89
2021/08/25 12:45:39;;;;;;;5.20;4.90;;;35.50;28.10;;;;;;4981671;28;20459;-91
2021/08/25 12:48:06;;;;;;;4.33;4.23;;;35.60;28.50;;;;;;4986002;28;20439;-96
2021/08/25 12:50:42;;;;;;;4.90;4.60;;;35.90;28.10;;;;;;4987293;28;20433;-91
2021/08/25 12:53:08;;;;;;;4.63;4.50;;;36.40;27.50;;;;;;4990983;28;20470;-87
2021/08/25 12:55:34;;;;;;;4.37;4.20;;;36.60;27.70;;;;;;4986004;28;21010;-87
2021/08/25 12:58:00;;;;;;;4.53;4.23;;;36.50;27.50;;;;;;4986076;28;20243;-92
2021/08/25 13:00:31;;;;;;;4.97;4.77;;;35.60;28.10;;;;;;4984074;28;20193;-89
2021/08/25 13:03:24;;;;;;;5.37;5.07;;;34.90;28.40;;;;;;4986760;28;20413;-89
2021/08/25 13:05:52;;;;;;;4.67;4.47;;;33.80;29.50;;;;;;4995030;28;20412;-88
2021/08/25 13:08:26;;;;;;;5.07;4.77;;;33.70;28.80;;;;;;5004391;28;20435;-89
2021/08/25 13:10:53;;;;;;;4.10;4.00;;;33.80;29.20;;;;;;5004113;28;20834;-91
2021/08/25 13:13:37;;;;;;;5.53;5.13;;;33.70;29.60;;;;;;5000193;28;20559;-87
2021/08/25 13:16:18;;;;;;;4.80;4.43;;;33.90;29.40;;;;;;5002499;28;20799;-87
2021/08/25 13:18:46;;;;;;;4.13;3.93;;;34.30;29.50;;;;;;4969150;28;20472;-89
2021/08/25 13:21:17;;;;;;;4.73;4.40;;;34.10;29.50;;;;;;5002377;28;20416;-88
2021/08/25 13:23:44;;;;;;;5.60;5.13;;;34.10;28.80;;;;;;4984885;28;20436;-88
2021/08/25 13:26:15;;;;;;;5.70;5.30;;;34.60;29.70;;;;;;5001051;28;20396;-87
2021/08/25 13:28:58;;;;;;;;;;;;;;;;;;;;;
2021/08/25 13:31:29;;;;;;;4.97;4.70;;;35.80;28.90;;;;;;5003854;28;20623;-88
2021/08/25 13:33:57;;;;;;;4.57;4.13;;;36.30;28.20;;;;;;5002001;28;20460;-87
2021/08/25 13:36:25;;;;;;;4.90;4.70;;;36.70;28.70;;;;;;4982454;28;20431;-88
2021/08/25 13:38:51;;;;;;;5.17;4.97;;;36.70;28.60;;;;;;4983332;28;20475;-89
2021/08/25 13:41:20;;;;;;;5.00;4.60;;;36.30;28.90;;;;;;4998897;28;20408;-90
2021/08/25 13:43:46;;;;;;;5.20;4.63;;;36.10;28.40;;;;;;4984848;28;20416;-89
2021/08/25 13:46:14;;;;;;;13.57;8.87;;;35.60;29.50;;;;;;4984287;28;20424;-88
2021/08/25 13:48:39;;;;;;;4.53;4.33;;;35.20;29.00;;;;;;5003053;28;20416;-85
2021/08/25 13:51:08;;;;;;;4.63;4.30;;;35.60;29.30;;;;;;5003338;28;20401;-89
2021/08/25 13:53:42;;;;;;;80.37;27.97;;;35.80;29.50;;;;;;4985524;28;20213;-92
2021/08/25 13:56:09;;;;;;;5.30;5.10;;;35.60;29.80;;;;;;5003087;28;20405;-87
2021/08/25 13:58:34;;;;;;;5.07;4.70;;;35.90;29.30;;;;;;5002549;28;20451;-87
2021/08/25 14:01:00;;;;;;;5.07;4.87;;;35.70;29.70;;;;;;5003911;28;20408;-90
2021/08/25 14:03:26;;;;;;;7.40;6.93;;;34.50;29.20;;;;;;4986904;28;20181;-89
2021/08/25 14:05:51;;;;;;;4.80;4.47;;;34.70;29.50;;;;;;4984999;28;20292;-90
2021/08/25 14:08:27;;;;;;;4.33;4.17;;;35.40;28.90;;;;;;4988068;28;20204;-88
2021/08/25 14:11:01;;;;;;;4.87;4.57;;;35.00;28.90;;;;;;4985092;28;20187;-89
2021/08/25 14:13:30;;;;;;;5.63;5.33;;;35.40;28.80;;;;;;4983848;28;20497;-87
2021/08/25 14:15:55;;;;;;;4.93;4.70;;;35.20;29.90;;;;;;5001939;28;20438;-87
2021/08/25 14:18:21;;;;;;;5.63;4.70;;;33.80;29.20;;;;;;5003471;28;20444;-90
2021/08/25 14:20:47;;;;;;;10.80;9.67;;;34.30;30.00;;;;;;4984732;28;20197;-90
2021/08/25 14:23:18;;;;;;;4.07;3.87;;;34.30;29.60;;;;;;4985139;28;20425;-87
2021/08/25 14:25:43;;;;;;;4.63;4.30;;;33.30;29.10;;;;;;5005106;28;20177;-89
2021/08/25 14:28:09;;;;;;;4.43;4.13;;;34.40;29.70;;;;;;4986428;28;20487;-88
2021/08/25 14:30:35;;;;;;;4.60;4.40;;;33.90;29.60;;;;;;5006472;28;20305;-89
2021/08/25 14:33:08;;;;;;;3.80;3.70;;;34.40;29.90;;;;;;4970179;28;20217;-90
2021/08/25 14:35:36;;;;;;;4.97;4.70;;;34.10;29.70;;;;;;4969753;28;20188;-90
2021/08/25 14:38:09;;;;;;;3.80;3.60;;;34.50;30.00;;;;;;4989117;28;20406;-91
2021/08/25 14:40:55;;;;;;;4.40;4.00;;;33.90;30.80;;;;;;4971938;28;20424;-94
2021/08/25 14:43:24;;;;;;;5.00;4.60;;;33.90;30.30;;;;;;4969914;28;20536;-88
2021/08/25 14:45:50;;;;;;;4.20;4.10;;;33.40;30.00;;;;;;4971963;28;20437;-88
2021/08/25 14:48:16;;;;;;;4.20;4.00;;;33.20;31.60;;;;;;4987699;28;20401;-93
2021/08/25 14:50:41;;;;;;;4.30;4.20;;;33.20;31.10;;;;;;4971256;28;20575;-89
2021/08/25 14:53:10;;;;;;;3.93;3.73;;;33.10;31.40;;;;;;4972114;28;20461;-88
2021/08/25 14:55:39;;;;;;;4.07;3.87;;;32.70;31.10;;;;;;4969426;28;20205;-86
2021/08/25 14:58:15;;;;;;;;;;;;;;;;;;;;;
2021/08/25 15:00:41;;;;;;;4.10;3.90;;;32.20;31.20;;;;;;4991301;28;20478;-89
2021/08/25 15:03:28;;;;;;;4.40;4.20;;;32.10;31.50;;;;;;4989654;28;20432;-90
2021/08/25 15:05:57;;;;;;;5.30;4.90;;;30.90;32.30;;;;;;4959325;28;20485;-86
2021/08/25 15:08:26;;;;;;;6.13;5.73;;;30.10;32.60;;;;;;4974504;28;20512;-89
2021/08/25 15:10:57;;;;;;;4.67;4.37;;;29.60;33.00;;;;;;4991118;28;20413;-93
2021/08/25 15:13:23;;;;;;;4.97;4.57;;;29.90;34.10;;;;;;4990382;28;20491;-89
2021/08/25 15:15:57;;;;;;;4.27;4.07;;;29.70;34.20;;;;;;4989143;28;20409;-91
2021/08/25 15:18:36;;;;;;;4.67;4.37;;;28.80;33.40;;;;;;4955273;28;20524;-92
2021/08/25 15:21:01;;;;;;;9.40;4.50;;;29.90;35.80;;;;;;4987049;28;20435;-93
2021/08/25 15:23:28;;;;;;;4.00;3.87;;;28.20;35.10;;;;;;4988173;28;20421;-88
2021/08/25 15:25:57;;;;;;;3.23;3.10;;;28.20;35.30;;;;;;4988841;28;20174;-90
2021/08/25 15:28:23;;;;;;;5.60;5.20;;;28.20;35.50;;;;;;4972140;28;20464;-88
2021/08/25 15:30:54;;;;;;;9.37;7.50;;;28.40;36.30;;;;;;4974644;28;20744;-87
2021/08/25 15:33:29;;;;;;;4.93;4.53;;;28.90;37.70;;;;;;4991434;28;20260;-89
2021/08/25 15:35:58;;;;;;;4.83;4.33;;;27.60;35.30;;;;;;4987431;28;20416;-89
2021/08/25 15:38:24;;;;;;;4.07;3.77;;;27.20;36.80;;;;;;4983424;28;20424;-88
2021/08/25 15:40:57;;;;;;;5.30;4.80;;;26.90;35.70;;;;;;5011771;28;20421;-91
2021/08/25 15:43:27;;;;;;;4.67;4.37;;;26.80;36.50;;;;;;5014478;28;20404;-90
2021/08/25 15:45:58;;;;;;;4.20;3.90;;;26.70;35.90;;;;;;5012864;28;20423;-89
2021/08/25 15:48:42;;;;;;;6.90;3.80;;;26.40;36.70;;;;;;5012575;28;20439;-87
2021/08/25 15:51:21;;;;;;;4.00;3.80;;;27.10;37.80;;;;;;4978114;28;20428;-87
2021/08/25 15:53:47;;;;;;;5.63;4.90;;;26.00;36.30;;;;;;4993309;28;20472;-89
2021/08/25 15:56:19;;;;;;;8.20;7.47;;;27.60;38.00;;;;;;4989131;28;20435;-86
2021/08/25 15:58:53;;;;;;;4.00;3.60;;;25.50;36.60;;;;;;5008900;28;20648;-90
2021/08/25 16:01:19;;;;;;;4.70;4.40;;;25.50;37.20;;;;;;5007881;28;20420;-84
2021/08/25 16:03:45;;;;;;;4.77;4.37;;;25.90;37.60;;;;;;4976213;28;20508;-87
2021/08/25 16:06:11;;;;;;;4.70;4.40;;;25.60;38.10;;;;;;4977748;28;20523;-85
2021/08/25 16:08:40;;;;;;;4.07;3.90;;;26.70;38.20;;;;;;4996767;28;20404;-86
2021/08/25 16:11:06;;;;;;;5.27;4.77;;;25.50;37.40;;;;;;5014604;28;20412;-87
2021/08/25 16:13:34;;;;;;;4.70;4.30;;;27.00;39.20;;;;;;5010142;28;20460;-90
2021/08/25 16:16:04;;;;;;;6.07;4.30;;;25.20;38.50;;;;;;5008838;28;20420;-86
2021/08/25 16:18:31;;;;;;;6.43;5.27;;;25.50;38.70;;;;;;4977642;28;20414;-87
2021/08/25 16:21:01;;;;;;;6.27;5.00;;;25.00;39.50;;;;;;5007599;28;20423;-89
2021/08/25 16:23:27;;;;;;;5.57;4.90;;;26.00;39.80;;;;;;4990762;28;20412;-88
2021/08/25 16:25:53;;;;;;;4.90;4.60;;;25.30;40.80;;;;;;5005659;28;20427;-89
2021/08/25 16:28:19;;;;;;;5.63;5.27;;;26.30;41.20;;;;;;5001500;28;20254;-87
2021/08/25 16:30:47;;;;;;;4.83;4.60;;;25.30;40.30;;;;;;5002517;28;20173;-87
2021/08/25 16:33:13;;;;;;;6.53;5.90;;;25.20;40.40;;;;;;5003018;28;20220;-90
2021/08/25 16:35:39;;;;;;;5.27;5.00;;;26.30;41.60;;;;;;5000200;28;20413;-85
2021/08/25 16:38:05;;;;;;;5.27;5.00;;;25.00;41.20;;;;;;4984594;28;20315;-88
2021/08/25 16:40:34;;;;;;;5.90;5.60;;;24.90;42.50;;;;;;5001055;28;20181;-85
2021/08/25 16:43:03;;;;;;;5.37;4.97;;;24.90;41.70;;;;;;4982808;28;20427;-89
2021/08/25 16:45:31;;;;;;;5.97;5.57;;;24.50;43.00;;;;;;4653938;28;10000920;-89
2021/08/25 16:47:58;;;;;;;5.43;5.17;;;26.20;43.60;;;;;;4961715;28;20471;-89
2021/08/25 16:50:24;;;;;;;7.97;6.30;;;24.90;42.60;;;;;;4980344;28;20412;-90
2021/08/25 16:52:53;;;;;;;6.67;6.03;;;24.50;42.10;;;;;;4963063;28;20461;-89
2021/08/25 16:58:10;;;;;;;7.50;6.90;;;24.40;44.10;;;;;;4967835;28;20418;-88
2021/08/25 17:00:41;;;;;;;8.07;6.20;;;25.60;44.10;;;;;;4964277;28;20432;-91
2021/08/25 17:03:06;;;;;;;9.43;6.13;;;24.30;44.10;;;;;;4965079;28;20490;-90
2021/08/25 17:05:34;;;;;;;5.37;4.97;;;24.70;44.20;;;;;;4981155;28;20449;-91
2021/08/25 17:08:02;;;;;;;6.60;6.00;;;25.50;43.80;;;;;;4977777;28;20529;-90
2021/08/25 17:10:35;;;;;;;6.33;5.80;;;24.20;43.30;;;;;;5004911;28;20417;-90
2021/08/25 17:13:05;;;;;;;4.70;4.40;;;24.30;44.10;;;;;;4996892;28;20475;-90
2021/08/25 17:15:34;;;;;;;5.40;5.00;;;24.20;43.50;;;;;;4990655;28;20468;-89
2021/08/25 17:18:24;;;;;;;6.43;5.90;;;24.00;43.60;;;;;;4999132;28;20400;-90
2021/08/25 17:20:50;;;;;;;5.77;5.40;;;23.90;43.60;;;;;;4994979;28;20421;-91
2021/08/25 17:23:25;;;;;;;5.30;5.00;;;25.00;45.50;;;;;;5002903;28;20435;-90
2021/08/25 17:26:06;;;;;;;;;;;;;;;;;;;;;
2021/08/25 17:29:05;;;;;;;5.47;5.17;;;23.70;44.50;;;;;;5000637;28;20817;-93
2021/08/25 17:31:39;;;;;;;5.20;4.80;;;23.80;44.70;;;;;;4981262;28;21057;-91
2021/08/25 17:34:07;;;;;;;6.50;6.07;;;24.00;46.40;;;;;;4983358;28;20484;-89
2021/08/25 17:36:33;;;;;;;6.40;5.93;;;23.40;45.80;;;;;;5001797;28;20408;-90
2021/08/25 17:39:02;;;;;;;7.07;6.60;;;24.70;47.70;;;;;;5002318;28;20452;-92
2021/08/25 17:41:30;;;;;;;8.87;5.40;;;24.80;47.60;;;;;;4983973;28;20405;-91
2021/08/25 17:43:56;;;;;;;4.90;4.80;;;23.20;48.30;;;;;;5003366;28;20510;-91
2021/08/25 17:46:25;;;;;;;5.03;4.60;;;23.30;46.40;;;;;;5007557;28;20854;-90
2021/08/25 17:49:06;;;;;;;;;;;;;;;;;;;;;
2021/08/25 17:51:35;;;;;;;5.17;4.97;;;23.00;46.60;;;;;;5013261;28;20531;-89
2021/08/25 17:54:07;;;;;;;5.07;4.87;;;23.90;49.40;;;;;;5005967;28;20470;-91
2021/08/25 17:56:35;;;;;;;6.70;5.97;;;23.80;48.90;;;;;;5025419;28;20938;-90
2021/08/25 17:59:06;;;;;;;4.40;4.20;;;22.70;49.30;;;;;;5027688;28;20472;-90
2021/08/25 18:01:33;;;;;;;4.37;3.97;;;22.60;48.80;;;;;;5023795;28;20415;-91
2021/08/25 18:03:58;;;;;;;7.40;4.40;;;22.30;50.00;;;;;;5006535;28;20500;-90
2021/08/25 18:06:30;;;;;;;4.83;4.53;;;22.30;50.50;;;;;;5005498;28;20184;-91
2021/08/25 18:08:58;;;;;;;9.07;6.27;;;22.20;49.40;;;;;;4984735;28;20208;-89
2021/08/25 18:11:36;;;;;;;4.90;4.50;;;21.90;49.90;;;;;;4985810;28;20488;-90
2021/08/25 18:14:21;;;;;;;4.87;4.20;;;22.20;50.90;;;;;;4986752;28;20471;-90
2021/08/25 18:16:48;;;;;;;8.93;5.70;;;22.20;51.50;;;;;;4981928;28;20408;-90
2021/08/25 18:19:14;;;;;;;5.73;5.33;;;22.70;53.80;;;;;;4983576;28;20595;-92
2021/08/25 18:21:44;;;;;;;5.00;4.70;;;21.60;52.90;;;;;;4994962;28;20475;-90